Time;durP1;ratioP1;P1;durP2;ratioP2;P2;SDS_P1;SDS_P2;PMS_P1;PMS_P2;Temp;Humidity;BMP_temperature;BMP_pressure;BME280_temperature;BME280_humidity;BME280_pressure;Samples;Min_cycle;Max_cycle;Signal;HPM_P1;HPM_P2
2023/06/02 00:00:39;;;;;;;14.80;13.80;;;12.10;99.90;;;;;;2610061;54;20182;-76
2023/06/02 00:03:05;;;;;;;16.17;15.10;;;12.10;99.90;;;;;;2610808;39;21328;-78
2023/06/02 00:05:31;;;;;;;16.70;15.40;;;12.00;99.90;;;;;;2609348;50;20424;-76
2023/06/02 00:07:58;;;;;;;17.97;16.23;;;12.00;99.90;;;;;;2608108;47;20428;-77
2023/06/02 00:10:24;;;;;;;15.50;14.63;;;12.00;99.90;;;;;;2608610;54;20150;-77
2023/06/02 00:12:50;;;;;;;16.53;15.53;;;12.00;99.90;;;;;;2609432;54;21353;-77
2023/06/02 00:15:17;;;;;;;16.23;15.13;;;12.00;99.90;;;;;;2608579;54;20531;-77
2023/06/02 00:17:42;;;;;;;17.53;15.73;;;12.00;99.90;;;;;;2607107;54;20155;-77
2023/06/02 00:20:10;;;;;;;16.57;15.00;;;11.90;99.90;;;;;;2608918;31;20956;-77
2023/06/02 00:22:38;;;;;;;16.60;15.30;;;11.80;99.90;;;;;;2608895;54;20226;-77
2023/06/02 00:25:04;;;;;;;15.30;14.17;;;11.90;99.90;;;;;;2608112;47;20570;-77
2023/06/02 00:27:30;;;;;;;16.53;15.43;;;11.80;99.90;;;;;;2608205;54;20480;-78
2023/06/02 00:29:56;;;;;;;15.87;14.57;;;11.90;99.90;;;;;;2609445;47;20431;-77
2023/06/02 00:32:22;;;;;;;17.53;16.43;;;11.90;99.90;;;;;;2608072;54;20162;-77
2023/06/02 00:34:48;;;;;;;17.50;15.90;;;11.80;99.90;;;;;;2606142;54;20423;-78
2023/06/02 00:37:14;;;;;;;15.60;14.33;;;11.80;99.90;;;;;;2611268;54;20383;-77
2023/06/02 00:39:39;;;;;;;15.20;13.80;;;11.80;99.90;;;;;;2610386;46;20438;-77
2023/06/02 00:42:06;;;;;;;15.13;13.93;;;11.90;99.90;;;;;;2609527;47;20163;-77
2023/06/02 00:44:32;;;;;;;15.73;14.60;;;11.80;99.90;;;;;;2610516;54;20197;-77
2023/06/02 00:46:57;;;;;;;15.83;14.33;;;11.80;99.90;;;;;;2610970;54;20531;-78
2023/06/02 00:49:23;;;;;;;15.80;14.57;;;11.80;99.90;;;;;;2611865;54;20173;-77
2023/06/02 00:51:50;;;;;;;16.20;14.83;;;11.70;99.90;;;;;;2609126;54;20167;-77
2023/06/02 00:54:16;;;;;;;16.40;15.13;;;11.60;99.90;;;;;;2611795;54;20399;-77
2023/06/02 00:56:43;;;;;;;17.83;14.67;;;11.60;99.90;;;;;;2610233;54;21130;-77
2023/06/02 00:59:10;;;;;;;15.37;14.50;;;11.60;99.90;;;;;;2611105;54;20438;-77
2023/06/02 01:01:38;;;;;;;15.33;14.33;;;11.50;99.90;;;;;;2610673;39;20811;-79
2023/06/02 01:07:27;;;;;;;16.07;14.60;;;11.50;99.90;;;;;;2613311;46;20958;-74
2023/06/02 01:13:16;;;;;;;15.17;14.17;;;11.40;99.90;;;;;;2613222;39;20785;-74
2023/06/02 01:19:06;;;;;;;15.83;14.40;;;11.30;99.90;;;;;;2610530;54;20459;-75
2023/06/02 01:24:58;;;;;;;15.63;14.27;;;11.30;99.90;;;;;;2611888;39;20753;-74
2023/06/02 01:30:46;;;;;;;14.57;13.77;;;11.20;99.90;;;;;;2612447;54;20995;-75
2023/06/02 01:36:37;;;;;;;16.87;14.60;;;11.30;99.90;;;;;;2611799;54;20415;-74
2023/06/02 01:42:26;;;;;;;15.00;13.93;;;11.30;99.90;;;;;;2613377;54;20400;-75
2023/06/02 01:48:13;;;;;;;15.40;14.27;;;11.30;99.90;;;;;;2611653;39;20766;-74
2023/06/02 01:54:01;;;;;;;16.40;15.10;;;11.10;99.90;;;;;;2612502;54;20643;-74
2023/06/02 01:59:50;;;;;;;14.87;13.60;;;11.00;99.90;;;;;;2610904;54;20395;-74
2023/06/02 02:02:40;;;;;;;16.17;14.70;;;11.10;99.90;;;;;;2611529;54;20412;-74
2023/06/02 02:05:06;;;;;;;18.30;15.00;;;11.00;99.90;;;;;;2610458;47;20407;-74
2023/06/02 02:10:54;;;;;;;15.83;14.77;;;10.80;99.90;;;;;;2611997;46;20411;-74
2023/06/02 02:16:45;;;;;;;16.67;15.37;;;10.80;99.90;;;;;;2611164;54;20415;-74
2023/06/02 02:22:33;;;;;;;15.83;14.80;;;10.80;99.90;;;;;;2611421;54;20387;-74
2023/06/02 02:28:21;;;;;;;18.90;15.07;;;10.80;99.90;;;;;;2614178;54;20134;-74
2023/06/02 02:34:08;;;;;;;15.83;14.70;;;10.90;99.90;;;;;;2613358;39;20767;-74
2023/06/02 02:39:56;;;;;;;16.40;15.03;;;10.90;99.90;;;;;;2614236;54;20748;-74
2023/06/02 02:45:44;;;;;;;15.77;14.57;;;10.90;99.90;;;;;;2612549;54;20135;-74
2023/06/02 02:51:32;;;;;;;19.50;15.80;;;10.90;99.90;;;;;;2613665;54;20130;-74
2023/06/02 02:57:20;;;;;;;16.67;14.93;;;10.90;99.90;;;;;;2612166;54;20130;-75
2023/06/02 03:07:07;;;;;;;16.53;15.00;;;10.90;99.90;;;;;;2613491;54;20358;-74
2023/06/02 03:12:55;;;;;;;16.70;15.43;;;10.80;99.90;;;;;;2612909;54;20439;-74
2023/06/02 03:15:39;;;;;;;16.47;14.90;;;10.80;99.90;;;;;;2610386;54;20395;-75
2023/06/02 03:18:05;;;;;;;16.37;14.70;;;10.90;99.90;;;;;;2612101;54;20162;-75
2023/06/02 03:23:53;;;;;;;19.80;15.30;;;10.90;99.90;;;;;;2611922;54;20390;-75
2023/06/02 03:29:42;;;;;;;15.67;14.50;;;11.00;99.90;;;;;;2613657;54;20121;-75
2023/06/02 03:35:29;;;;;;;15.57;14.30;;;10.80;99.90;;;;;;2611775;54;20391;-75
2023/06/02 03:41:17;;;;;;;21.23;15.27;;;10.80;99.90;;;;;;2611919;54;20423;-75
2023/06/02 03:47:05;;;;;;;15.07;13.87;;;10.80;99.90;;;;;;2611438;54;20134;-75
2023/06/02 03:52:53;;;;;;;20.40;14.80;;;10.80;99.90;;;;;;2613421;54;20407;-74
2023/06/02 03:58:41;;;;;;;16.10;14.80;;;10.80;99.90;;;;;;2612441;46;20157;-75
2023/06/02 04:07:57;;;;;;;16.67;15.07;;;10.90;99.90;;;;;;2611143;54;20979;-74
2023/06/02 04:13:44;;;;;;;16.43;15.00;;;10.90;99.90;;;;;;2610942;54;20398;-75
2023/06/02 04:19:32;;;;;;;17.47;15.83;;;11.00;99.90;;;;;;2611452;54;20661;-75
2023/06/02 04:25:20;;;;;;;17.63;15.83;;;10.90;99.90;;;;;;2610960;54;20158;-75
2023/06/02 04:31:09;;;;;;;16.73;15.40;;;10.90;99.90;;;;;;2611769;39;20541;-75
2023/06/02 04:36:57;;;;;;;16.47;15.37;;;11.00;99.90;;;;;;2610355;54;20419;-75
2023/06/02 04:42:45;;;;;;;17.70;16.07;;;11.00;99.90;;;;;;2613084;54;20399;-75
2023/06/02 04:48:32;;;;;;;15.83;14.70;;;11.00;99.90;;;;;;2612397;47;20161;-76
2023/06/02 04:54:20;;;;;;;18.47;17.07;;;11.10;99.90;;;;;;2613203;54;20138;-74
2023/06/02 05:00:09;;;;;;;16.10;15.10;;;11.20;99.90;;;;;;2612382;31;20598;-75
2023/06/02 05:03:25;;;;;;;16.83;15.20;;;11.10;99.90;;;;;;2613046;47;20414;-75
2023/06/02 05:05:51;;;;;;;17.70;16.13;;;11.10;99.90;;;;;;2609681;54;21013;-75
2023/06/02 05:11:38;;;;;;;15.50;14.20;;;11.10;99.90;;;;;;2613206;54;20146;-75
2023/06/02 05:17:29;;;;;;;16.50;15.43;;;11.20;99.90;;;;;;2610971;54;20651;-78
2023/06/02 05:23:16;;;;;;;17.53;16.10;;;11.10;99.90;;;;;;2607097;54;20423;-74
2023/06/02 05:29:04;;;;;;;16.57;15.47;;;11.20;99.90;;;;;;2612255;54;20477;-74
2023/06/02 05:32:07;;;;;;;17.57;16.07;;;11.20;99.90;;;;;;2611069;46;20426;-74
2023/06/02 05:34:34;;;;;;;16.77;15.50;;;11.20;99.90;;;;;;2611645;47;20147;-74
2023/06/02 05:40:22;;;;;;;16.77;15.27;;;11.30;99.90;;;;;;2610956;54;20509;-74
2023/06/02 05:46:09;;;;;;;17.77;16.37;;;11.40;99.90;;;;;;2612599;54;20935;-74
2023/06/02 05:51:57;;;;;;;18.30;16.77;;;11.50;99.90;;;;;;2610988;54;20158;-73
2023/06/02 05:57:45;;;;;;;17.57;16.57;;;11.50;99.90;;;;;;2610015;54;20199;-73
2023/06/02 06:10:17;;;;;;;18.73;17.20;;;11.40;99.90;;;;;;2609521;54;20415;-74
2023/06/02 06:16:05;;;;;;;19.17;17.43;;;11.50;99.90;;;;;;2612892;54;20135;-74
2023/06/02 06:21:53;;;;;;;18.57;17.30;;;11.50;99.90;;;;;;2612238;54;20122;-75
2023/06/02 06:27:41;;;;;;;18.50;17.10;;;11.80;99.90;;;;;;2611199;54;20142;-74
2023/06/02 06:33:29;;;;;;;19.00;17.40;;;11.60;99.90;;;;;;2612071;54;20162;-74
2023/06/02 06:39:17;;;;;;;18.07;16.40;;;12.00;99.90;;;;;;2614395;54;20477;-73
2023/06/02 06:45:05;;;;;;;17.17;15.97;;;11.90;99.90;;;;;;2613825;54;20157;-74
2023/06/02 06:50:53;;;;;;;17.57;16.53;;;12.20;99.90;;;;;;2611458;54;20402;-74
2023/06/02 06:56:43;;;;;;;19.83;18.23;;;12.20;99.90;;;;;;2610089;54;20391;-74
2023/06/02 07:02:30;;;;;;;18.43;16.80;;;11.90;99.90;;;;;;2608819;54;20526;-74
2023/06/02 07:08:18;;;;;;;19.07;17.13;;;12.20;99.90;;;;;;2612953;54;20153;-74
2023/06/02 07:14:06;;;;;;;18.87;17.37;;;12.20;99.90;;;;;;2610972;54;20130;-74
2023/06/02 07:19:54;;;;;;;20.37;18.40;;;12.30;99.90;;;;;;2614094;39;20760;-74
2023/06/02 07:25:41;;;;;;;19.10;17.50;;;12.50;99.90;;;;;;2609608;54;20254;-74
2023/06/02 07:31:29;;;;;;;18.47;17.00;;;12.50;99.90;;;;;;2611635;54;20162;-73
2023/06/02 07:37:17;;;;;;;17.30;16.00;;;12.40;99.90;;;;;;2609809;39;20504;-75
2023/06/02 07:39:55;;;;;;;18.23;16.73;;;12.70;99.90;;;;;;2607877;47;20421;-74
2023/06/02 07:42:21;;;;;;;20.43;18.40;;;13.00;99.90;;;;;;2609555;54;20242;-74
2023/06/02 07:48:09;;;;;;;22.13;17.67;;;13.20;99.90;;;;;;2608639;54;20175;-74
2023/06/02 07:53:56;;;;;;;19.03;17.43;;;13.20;99.90;;;;;;2613518;54;20154;-74
2023/06/02 07:59:45;;;;;;;18.23;16.70;;;13.00;99.90;;;;;;2608613;54;20138;-75
2023/06/02 08:05:32;;;;;;;19.17;17.40;;;13.20;99.90;;;;;;2609554;54;20442;-74
2023/06/02 08:11:20;;;;;;;23.60;18.07;;;13.60;99.90;;;;;;2610108;54;20138;-74
2023/06/02 08:17:08;;;;;;;18.97;17.23;;;13.50;96.20;;;;;;2609801;54;20137;-74
2023/06/02 08:22:56;;;;;;;17.97;16.97;;;13.80;94.20;;;;;;2614572;54;20134;-74
2023/06/02 08:28:48;;;;;;;17.97;16.77;;;13.70;93.00;;;;;;2611454;54;20675;-74
2023/06/02 08:34:37;;;;;;;18.77;17.03;;;14.50;85.90;;;;;;2614075;54;20953;-75
2023/06/02 08:40:28;;;;;;;19.13;17.53;;;14.20;77.60;;;;;;2612178;54;20466;-74
2023/06/02 08:46:16;;;;;;;16.70;15.80;;;14.70;64.70;;;;;;2615685;54;20378;-74
2023/06/02 08:52:09;;;;;;;18.47;16.70;;;16.10;48.30;;;;;;2612747;54;20122;-74
2023/06/02 08:57:56;;;;;;;19.90;18.10;;;15.90;32.60;;;;;;2613699;54;20395;-73
2023/06/02 09:07:53;;;;;;;17.43;16.27;;;16.40;34.80;;;;;;2614151;54;20495;-74
2023/06/02 09:13:41;;;;;;;19.00;17.70;;;15.70;34.40;;;;;;2613880;54;20419;-75
2023/06/02 09:19:49;;;;;;;17.50;16.40;;;15.80;34.50;;;;;;2612202;54;20250;-71
2023/06/02 09:25:40;;;;;;;18.70;17.70;;;17.40;30.70;;;;;;2613710;54;20390;-71
2023/06/02 09:37:57;;;;;;;18.70;17.50;;;18.00;24.90;;;;;;2614033;54;21032;-71
2023/06/02 09:43:44;;;;;;;18.67;17.47;;;17.00;29.30;;;;;;2614189;54;20390;-71
2023/06/02 09:49:42;;;;;;;19.60;18.37;;;17.60;27.60;;;;;;2615379;39;20864;-72
2023/06/02 09:55:33;;;;;;;20.60;18.70;;;17.10;27.90;;;;;;2614402;54;20419;-71
2023/06/02 10:01:22;;;;;;;19.57;18.17;;;17.70;30.10;;;;;;2613896;54;20372;-72
2023/06/02 10:29:51;;;;;;;16.70;15.00;;;16.30;44.00;;;;;;2614289;54;20412;-71
2023/06/02 10:35:59;;;;;;;16.30;15.00;;;16.50;39.60;;;;;;2612203;54;20436;-72
2023/06/02 10:42:07;;;;;;;16.63;15.10;;;17.40;38.50;;;;;;2612304;54;20424;-71
2023/06/02 10:47:54;;;;;;;17.77;16.20;;;18.40;28.60;;;;;;2612178;54;21196;-71
2023/06/02 10:57:49;;;;;;;15.17;13.90;;;18.70;29.80;;;;;;2610817;54;20469;-71
2023/06/02 11:00:32;;;;;;;16.73;15.33;;;18.10;30.50;;;;;;2610279;54;20396;-71
2023/06/02 11:10:25;;;;;;;17.30;15.53;;;19.30;23.50;;;;;;2614238;54;20392;-71
2023/06/02 11:16:16;;;;;;;14.77;13.57;;;19.10;25.00;;;;;;2614200;54;20395;-71
2023/06/02 11:22:04;;;;;;;15.47;14.17;;;18.90;26.00;;;;;;2613255;54;20920;-70
2023/06/02 11:25:07;;;;;;;16.13;14.93;;;17.70;29.10;;;;;;2612538;54;20391;-70
2023/06/02 11:27:39;;;;;;;17.23;15.63;;;17.70;35.40;;;;;;2611657;54;20953;-71
2023/06/02 11:33:33;;;;;;;18.80;16.60;;;18.70;34.90;;;;;;2611209;54;20515;-71
2023/06/02 11:39:20;;;;;;;15.53;14.17;;;18.60;26.70;;;;;;2611756;54;20414;-71
2023/06/02 11:51:32;;;;;;;17.00;15.63;;;19.30;22.30;;;;;;2612719;54;20388;-72
2023/06/02 11:57:30;;;;;;;16.37;14.60;;;19.00;26.20;;;;;;2611059;54;20251;-70
2023/06/02 12:03:18;;;;;;;16.43;15.10;;;18.40;34.20;;;;;;2613461;54;20366;-72
2023/06/02 12:09:14;;;;;;;18.03;15.30;;;18.20;34.30;;;;;;2614072;54;20435;-70
2023/06/02 12:21:39;;;;;;;17.83;15.43;;;20.40;26.10;;;;;;2610165;54;20383;-72
2023/06/02 12:27:27;;;;;;;18.37;16.67;;;21.20;19.90;;;;;;2610923;54;20387;-71
2023/06/02 12:33:16;;;;;;;16.97;15.30;;;21.10;22.20;;;;;;2610740;39;20681;-71
2023/06/02 12:39:06;;;;;;;16.10;14.67;;;21.70;20.10;;;;;;2613819;54;20367;-71
2023/06/02 12:44:55;;;;;;;17.00;15.40;;;20.20;21.10;;;;;;2613128;54;20418;-73
2023/06/02 12:50:42;;;;;;;21.13;16.40;;;20.10;18.70;;;;;;2612527;54;20433;-71
2023/06/02 12:56:32;;;;;;;17.40;15.67;;;21.30;18.20;;;;;;2613745;54;20126;-71
2023/06/02 13:02:23;;;;;;;17.93;16.20;;;20.30;19.20;;;;;;2613173;54;20395;-71
2023/06/02 13:11:33;;;;;;;15.00;13.90;;;21.50;18.10;;;;;;2615001;54;20409;-71
2023/06/02 13:17:21;;;;;;;16.30;14.93;;;21.40;14.70;;;;;;2614798;54;20648;-71
2023/06/02 13:23:08;;;;;;;15.77;14.13;;;21.10;16.30;;;;;;2614471;39;20537;-72
2023/06/02 13:28:56;;;;;;;16.77;14.77;;;20.20;20.00;;;;;;2614394;54;20146;-70
2023/06/02 13:41:28;;;;;;;19.93;15.47;;;20.70;21.10;;;;;;2615167;54;20399;-71
2023/06/02 13:47:16;;;;;;;16.30;14.93;;;19.30;23.00;;;;;;2615287;54;20399;-71
2023/06/02 13:53:04;;;;;;;18.03;16.43;;;19.40;23.90;;;;;;2615310;54;20505;-71
2023/06/02 13:58:52;;;;;;;16.30;14.90;;;21.10;19.10;;;;;;2615013;46;20134;-71
2023/06/02 14:04:42;;;;;;;15.83;14.53;;;21.30;16.20;;;;;;2615140;54;20130;-71
2023/06/02 14:13:52;;;;;;;20.10;18.80;;;21.00;18.40;;;;;;2615205;54;20399;-71
2023/06/02 14:19:40;;;;;;;16.97;15.87;;;22.00;15.30;;;;;;2614128;54;20127;-71
2023/06/02 14:25:28;;;;;;;18.13;16.50;;;22.20;12.90;;;;;;2615165;54;20245;-72
2023/06/02 14:31:16;;;;;;;16.20;14.90;;;21.70;16.40;;;;;;2615400;54;20115;-70
2023/06/02 14:37:04;;;;;;;17.03;15.83;;;20.50;17.40;;;;;;2615026;54;20407;-72
2023/06/02 14:42:52;;;;;;;15.37;14.20;;;20.10;19.30;;;;;;2610677;54;20391;-70
2023/06/02 14:48:40;;;;;;;15.50;14.20;;;20.80;16.40;;;;;;2613805;54;20231;-69
2023/06/02 14:54:28;;;;;;;14.83;13.87;;;20.20;17.80;;;;;;2613185;54;20391;-72
2023/06/02 15:00:16;;;;;;;14.30;12.90;;;20.20;18.90;;;;;;2614781;46;20146;-71
2023/06/02 15:06:04;;;;;;;14.77;13.37;;;19.60;17.10;;;;;;2613554;54;20382;-69
2023/06/02 15:09:13;;;;;;;14.27;13.07;;;20.40;17.20;;;;;;2614271;39;20864;-71
2023/06/02 15:11:39;;;;;;;15.05;13.65;;;21.40;14.40;;;;;;2614502;54;20913;-72
2023/06/02 15:17:27;;;;;;;14.60;13.60;;;20.60;14.00;;;;;;2614115;54;20125;-72
2023/06/02 15:23:15;;;;;;;14.40;13.40;;;19.70;16.60;;;;;;2614060;54;20143;-70
2023/06/02 15:29:03;;;;;;;13.60;12.30;;;20.40;17.00;;;;;;2613991;54;20251;-71
2023/06/02 15:34:51;;;;;;;15.20;14.10;;;21.70;14.80;;;;;;2613728;54;20434;-71
2023/06/02 15:40:39;;;;;;;16.17;14.90;;;19.80;15.20;;;;;;2614242;54;20122;-70
2023/06/02 15:46:26;;;;;;;15.23;14.33;;;19.20;15.80;;;;;;2613122;54;20142;-71
2023/06/02 15:52:14;;;;;;;15.53;12.40;;;19.20;17.00;;;;;;2614193;39;20535;-70
2023/06/02 15:58:02;;;;;;;16.50;14.20;;;21.50;15.10;;;;;;2612388;54;20134;-71
2023/06/02 16:03:51;;;;;;;14.07;13.17;;;20.70;13.60;;;;;;2613981;54;20142;-72
2023/06/02 16:13:44;;;;;;;15.30;14.23;;;21.90;14.60;;;;;;2613615;39;20803;-71
2023/06/02 16:19:31;;;;;;;15.33;14.13;;;19.80;14.00;;;;;;2611209;54;20399;-72
2023/06/02 16:25:19;;;;;;;15.70;14.20;;;19.20;16.10;;;;;;2611774;39;20540;-70
2023/06/02 16:31:08;;;;;;;16.40;15.27;;;19.10;17.20;;;;;;2615220;39;20530;-71
2023/06/02 16:36:57;;;;;;;16.50;15.00;;;18.70;17.80;;;;;;2615586;54;20399;-71
2023/06/02 16:42:45;;;;;;;16.00;14.70;;;19.00;17.30;;;;;;2615347;54;20434;-72
2023/06/02 16:48:33;;;;;;;16.57;15.57;;;19.10;17.40;;;;;;2611959;54;20458;-72
2023/06/02 16:54:21;;;;;;;17.33;16.33;;;19.70;15.00;;;;;;2612139;54;20691;-71
2023/06/02 17:00:09;;;;;;;16.07;15.07;;;20.20;15.30;;;;;;2612790;54;20181;-72
2023/06/02 17:05:57;;;;;;;16.10;15.13;;;20.10;13.20;;;;;;2611450;54;20378;-71
2023/06/02 17:09:16;;;;;;;16.00;14.83;;;19.90;13.60;;;;;;2611728;54;20391;-71
2023/06/02 17:11:42;;;;;;;16.40;15.50;;;19.70;12.90;;;;;;2612350;54;20155;-72
2023/06/02 17:17:29;;;;;;;18.50;17.37;;;19.90;13.10;;;;;;2611012;54;20371;-71
2023/06/02 17:23:17;;;;;;;18.83;17.53;;;20.00;12.00;;;;;;2615163;54;21010;-72
2023/06/02 17:26:20;;;;;;;18.80;17.60;;;19.30;13.80;;;;;;2614238;54;20423;-71
2023/06/02 17:28:46;;;;;;;18.20;17.13;;;19.00;14.00;;;;;;2611637;54;20155;-72
2023/06/02 17:34:34;;;;;;;18.47;17.37;;;18.70;14.00;;;;;;2611476;54;20202;-71
2023/06/02 17:40:21;;;;;;;18.73;17.53;;;18.50;12.00;;;;;;2612197;39;20691;-71
2023/06/02 17:46:09;;;;;;;17.43;16.53;;;18.60;13.30;;;;;;2612672;39;20579;-72
2023/06/02 17:51:57;;;;;;;17.90;16.90;;;18.60;12.80;;;;;;2613746;54;20123;-72
2023/06/02 17:57:45;;;;;;;18.80;17.70;;;18.50;14.30;;;;;;2610957;54;20431;-72
2023/06/02 18:03:33;;;;;;;17.90;16.60;;;18.50;14.20;;;;;;2610663;54;20131;-71
2023/06/02 18:16:06;;;;;;;19.17;17.67;;;18.30;15.80;;;;;;2612606;54;20427;-70
2023/06/02 18:21:54;;;;;;;18.77;17.30;;;18.30;16.90;;;;;;2613957;54;20367;-72
2023/06/02 18:27:42;;;;;;;18.00;16.60;;;18.20;16.40;;;;;;2610392;54;20395;-72
2023/06/02 18:33:30;;;;;;;18.97;17.47;;;18.20;17.70;;;;;;2612481;46;20178;-72
2023/06/02 18:39:20;;;;;;;21.43;16.50;;;18.00;17.30;;;;;;2607828;54;20135;-71
2023/06/02 18:45:08;;;;;;;17.80;16.77;;;17.90;17.70;;;;;;2607207;54;20390;-71
2023/06/02 18:50:56;;;;;;;18.70;17.50;;;17.80;19.50;;;;;;2612672;54;20423;-71
2023/06/02 18:56:43;;;;;;;17.40;16.40;;;17.60;21.70;;;;;;2615041;54;20170;-72
2023/06/02 19:02:31;;;;;;;17.70;16.80;;;17.60;21.60;;;;;;2613775;54;20250;-71
2023/06/02 19:08:19;;;;;;;17.20;16.37;;;17.30;23.60;;;;;;2614076;54;20126;-72
2023/06/02 19:14:06;;;;;;;17.57;16.40;;;17.40;23.10;;;;;;2614585;54;20187;-71
2023/06/02 19:19:54;;;;;;;16.30;15.40;;;17.30;24.20;;;;;;2614171;54;20146;-71
2023/06/02 19:25:42;;;;;;;17.07;16.17;;;17.00;26.00;;;;;;2613495;54;20149;-71
2023/06/02 19:31:30;;;;;;;16.37;15.53;;;16.90;28.70;;;;;;2613267;54;20150;-72
2023/06/02 19:37:19;;;;;;;18.03;16.73;;;16.60;32.80;;;;;;2613580;54;20395;-72
2023/06/02 19:43:07;;;;;;;16.80;15.90;;;16.30;37.50;;;;;;2608261;39;20621;-70
2023/06/02 19:48:55;;;;;;;17.93;16.47;;;16.10;49.10;;;;;;2610342;54;20237;-71
2023/06/02 19:54:44;;;;;;;18.23;16.93;;;16.10;51.10;;;;;;2611390;54;20150;-71
2023/06/02 20:00:32;;;;;;;16.80;16.00;;;15.90;57.00;;;;;;2610724;54;21000;-71
2023/06/02 20:06:22;;;;;;;18.43;17.00;;;15.80;64.50;;;;;;2610089;54;20150;-71
2023/06/02 20:12:16;;;;;;;17.80;16.30;;;15.60;78.30;;;;;;2612930;54;21448;-71
2023/06/02 20:18:03;;;;;;;17.70;16.60;;;15.50;91.10;;;;;;2613264;39;20764;-70
2023/06/02 20:23:50;;;;;;;18.10;16.70;;;15.30;99.90;;;;;;2613247;54;20136;-71
2023/06/02 20:32:59;;;;;;;17.30;15.90;;;15.00;99.90;;;;;;2606921;54;20391;-71
2023/06/02 20:38:48;;;;;;;16.03;14.73;;;14.80;99.90;;;;;;2612731;54;20150;-71
2023/06/02 20:44:35;;;;;;;16.13;15.10;;;14.40;99.90;;;;;;2612649;39;20756;-71
2023/06/02 20:50:22;;;;;;;15.03;14.07;;;14.40;99.90;;;;;;2614822;39;20628;-71
2023/06/02 20:56:10;;;;;;;16.17;14.50;;;14.20;99.90;;;;;;2614176;54;20637;-70
2023/06/02 21:01:57;;;;;;;16.83;15.50;;;14.30;99.90;;;;;;2613572;54;20214;-72
2023/06/02 21:07:45;;;;;;;16.10;14.90;;;14.20;99.90;;;;;;2608578;54;20254;-70
2023/06/02 21:13:33;;;;;;;16.03;14.70;;;14.20;99.90;;;;;;2609098;39;20525;-71
2023/06/02 21:19:21;;;;;;;16.90;15.43;;;14.20;99.90;;;;;;2611304;39;20753;-72
2023/06/02 21:25:09;;;;;;;15.03;13.63;;;14.10;99.90;;;;;;2613168;54;20127;-71
2023/06/02 21:30:56;;;;;;;15.10;14.00;;;14.00;99.90;;;;;;2610338;54;20391;-70
2023/06/02 21:36:44;;;;;;;17.03;15.73;;;13.90;99.90;;;;;;2610789;54;20138;-71
2023/06/02 21:42:32;;;;;;;16.40;15.10;;;13.80;99.90;;;;;;2612785;54;20235;-71
2023/06/02 21:48:19;;;;;;;16.20;15.00;;;13.70;99.90;;;;;;2611993;54;20177;-71
2023/06/02 21:54:07;;;;;;;17.13;15.93;;;13.70;99.90;;;;;;2614513;54;20577;-71
2023/06/02 21:59:54;;;;;;;17.97;16.07;;;13.80;99.90;;;;;;2612881;54;20131;-72
2023/06/02 22:05:42;;;;;;;15.43;14.10;;;13.70;99.90;;;;;;2609752;54;20134;-72
2023/06/02 22:11:30;;;;;;;14.60;13.40;;;13.40;99.90;;;;;;2610657;54;20274;-71
2023/06/02 22:17:18;;;;;;;16.00;13.57;;;13.10;99.90;;;;;;2610130;54;20415;-71
2023/06/02 22:23:05;;;;;;;13.93;12.93;;;12.90;99.90;;;;;;2610625;54;20840;-71
2023/06/02 22:28:53;;;;;;;14.07;13.07;;;12.60;99.90;;;;;;2611236;54;20115;-71
2023/06/02 22:34:41;;;;;;;13.73;12.63;;;12.80;99.90;;;;;;2609517;54;20127;-72
2023/06/02 22:40:29;;;;;;;16.30;13.00;;;12.70;99.90;;;;;;2610320;54;20126;-70
2023/06/02 22:46:17;;;;;;;13.90;12.47;;;12.50;99.90;;;;;;2611297;54;20123;-71
2023/06/02 22:52:05;;;;;;;14.30;12.97;;;12.20;99.90;;;;;;2609003;54;20158;-70
2023/06/02 22:57:52;;;;;;;13.63;12.43;;;12.00;99.90;;;;;;2611566;54;20127;-71
2023/06/02 23:03:40;;;;;;;14.67;13.37;;;12.00;99.90;;;;;;2610133;46;21989;-71
2023/06/02 23:13:46;;;;;;;12.90;11.77;;;11.90;99.90;;;;;;2611685;54;20414;-70
2023/06/02 23:19:33;;;;;;;12.63;11.33;;;12.00;99.90;;;;;;2610520;54;20494;-72
2023/06/02 23:25:21;;;;;;;12.53;11.27;;;12.10;99.90;;;;;;2611176;54;20137;-70
2023/06/02 23:28:24;;;;;;;15.97;12.13;;;12.00;99.90;;;;;;2610686;54;20431;-71
2023/06/02 23:30:50;;;;;;;14.13;11.87;;;12.00;99.90;;;;;;2608500;54;20210;-71
2023/06/02 23:36:38;;;;;;;12.20;11.03;;;11.80;99.90;;;;;;2610389;54;20130;-71
2023/06/02 23:42:26;;;;;;;12.47;11.40;;;11.80;99.90;;;;;;2610312;54;20640;-71
2023/06/02 23:48:14;;;;;;;12.10;10.90;;;11.90;99.90;;;;;;2610096;54;20166;-72
2023/06/02 23:54:01;;;;;;;17.47;11.77;;;11.70;99.90;;;;;;2610659;54;20368;-71
2023/06/02 23:59:50;;;;;;;12.87;11.87;;;11.60;99.90;;;;;;2612697;54;20121;-71
